createdAt,value
2018-07-22T00:00:29.915Z,19.77
2018-07-22T00:02:57.735Z,20.77
2018-07-22T00:05:25.460Z,24.47
2018-07-22T00:07:53.272Z,25.85
2018-07-22T00:10:27.243Z,26.80
2018-07-22T00:12:55.521Z,27.13
2018-07-22T00:15:23.384Z,25.65
2018-07-22T00:17:51.336Z,25.75
2018-07-22T00:20:19.794Z,25.05
2018-07-22T00:22:47.673Z,23.55
2018-07-22T00:25:16.161Z,24.60
2018-07-22T00:27:44.900Z,27.37
2018-07-22T00:30:12.888Z,28.55
2018-07-22T00:33:01.435Z,29.27
2018-07-22T00:35:29.229Z,27.87
2018-07-22T00:37:56.977Z,33.20
2018-07-22T00:40:25.002Z,33.10
2018-07-22T00:42:53.041Z,33.70
2018-07-22T00:45:21.139Z,31.70
2018-07-22T00:47:49.307Z,28.20
2018-07-22T00:50:17.242Z,31.50
2018-07-22T00:52:45.134Z,26.75
2018-07-22T00:55:13.112Z,25.75
2018-07-22T00:57:41.107Z,23.83
2018-07-22T01:00:09.005Z,21.85
2018-07-22T01:02:39.899Z,23.65
2018-07-22T01:05:07.677Z,26.90
2018-07-22T01:07:35.480Z,27.22
2018-07-22T01:10:04.918Z,33.60
2018-07-22T01:12:32.757Z,33.50
2018-07-22T01:15:00.626Z,28.20
2018-07-22T01:17:28.526Z,27.30
2018-07-22T01:20:05.251Z,29.98
2018-07-22T01:22:33.340Z,29.15
2018-07-22T01:25:01.250Z,30.10
2018-07-22T01:27:29.109Z,32.08
2018-07-22T01:29:58.226Z,32.38
2018-07-22T01:32:26.120Z,36.05
2018-07-22T01:34:54.313Z,39.92
2018-07-22T01:37:22.156Z,38.85
2018-07-22T01:39:50.249Z,38.80
2018-07-22T01:42:18.134Z,34.33
2018-07-22T01:44:46.167Z,31.30
2018-07-22T01:47:14.065Z,35.23
2018-07-22T01:49:42.214Z,29.82
2018-07-22T01:52:10.300Z,32.28
2018-07-22T01:54:38.556Z,30.35
2018-07-22T01:57:06.659Z,45.38
2018-07-22T01:59:34.683Z,37.97
2018-07-22T02:02:02.624Z,35.47
2018-07-22T02:04:31.545Z,27.60
2018-07-22T02:06:59.543Z,28.10
2018-07-22T02:09:27.799Z,27.30
2018-07-22T02:11:55.658Z,39.30
2018-07-22T02:14:23.769Z,42.17
2018-07-22T02:16:51.818Z,45.65
2018-07-22T02:19:20.856Z,52.10
2018-07-22T02:21:48.675Z,50.60
2018-07-22T02:24:16.508Z,48.73
2018-07-22T02:26:44.301Z,53.30
2018-07-22T02:29:12.131Z,47.55
2018-07-22T02:31:39.915Z,46.30
2018-07-22T02:34:07.777Z,45.37
2018-07-22T02:36:35.561Z,52.03
2018-07-22T02:39:05.316Z,55.37
2018-07-22T02:41:33.111Z,60.93
2018-07-22T02:44:00.969Z,61.30
2018-07-22T02:46:28.795Z,56.87
2018-07-22T02:49:07.807Z,56.37
2018-07-22T02:51:36.795Z,56.37
2018-07-22T02:54:04.718Z,71.50
2018-07-22T02:56:32.541Z,72.03
2018-07-22T02:59:03.355Z,66.43
2018-07-22T03:01:32.241Z,70.40
2018-07-22T03:04:00.323Z,80.40
2018-07-22T03:06:28.138Z,94.90
2018-07-22T03:08:56.073Z,99.07
2018-07-22T03:11:23.924Z,95.03
2018-07-22T03:13:51.806Z,76.37
2018-07-22T03:16:19.674Z,75.63
2018-07-22T03:18:47.610Z,65.53
2018-07-22T03:21:15.449Z,63.30
2018-07-22T03:23:43.391Z,64.50
2018-07-22T03:26:11.275Z,69.47
2018-07-22T03:28:39.275Z,85.73
2018-07-22T03:31:07.168Z,80.87
2018-07-22T03:33:35.045Z,81.47
2018-07-22T03:36:02.955Z,79.60
2018-07-22T03:38:30.918Z,86.27
2018-07-22T03:40:58.758Z,91.63
2018-07-22T03:43:26.741Z,82.37
2018-07-22T03:45:54.639Z,88.43
2018-07-22T03:48:22.551Z,79.07
2018-07-22T03:50:50.401Z,75.13
2018-07-22T03:53:18.257Z,67.33
2018-07-22T03:55:47.115Z,72.17
2018-07-22T03:58:14.932Z,73.23
2018-07-22T04:00:42.732Z,76.93
2018-07-22T04:03:10.524Z,80.00
2018-07-22T04:05:38.252Z,86.53
2018-07-22T04:10:44.672Z,105.30
2018-07-22T04:13:12.504Z,117.00
2018-07-22T04:15:40.293Z,107.20
2018-07-22T04:18:15.537Z,97.50
2018-07-22T04:20:43.363Z,96.57
2018-07-22T04:23:11.326Z,85.07
2018-07-22T04:25:39.146Z,86.45
2018-07-22T04:28:07.099Z,82.22
2018-07-22T04:30:34.941Z,74.60
2018-07-22T04:33:02.920Z,70.30
2018-07-22T04:35:30.757Z,63.23
2018-07-22T04:37:58.720Z,57.93
2018-07-22T04:40:26.590Z,57.00
2018-07-22T04:42:54.425Z,48.00
2018-07-22T04:45:22.247Z,60.00
2018-07-22T04:47:50.175Z,56.53
2018-07-22T04:50:18.124Z,61.07
2018-07-22T04:52:46.039Z,58.47
2018-07-22T04:55:13.868Z,50.40
2018-07-22T04:57:41.749Z,53.63
2018-07-22T05:00:09.644Z,53.10
2018-07-22T05:02:37.575Z,53.93
2018-07-22T05:05:05.451Z,47.23
2018-07-22T05:07:33.321Z,45.83
2018-07-22T05:10:01.179Z,46.15
2018-07-22T05:12:29.041Z,46.77
2018-07-22T05:14:56.870Z,46.15
2018-07-22T05:20:11.320Z,49.25
2018-07-22T05:22:40.107Z,46.83
2018-07-22T05:25:07.893Z,48.87
2018-07-22T05:27:35.690Z,48.68
2018-07-22T05:30:03.595Z,47.60
2018-07-22T05:32:31.385Z,47.85
2018-07-22T05:34:59.207Z,46.08
2018-07-22T05:37:27.117Z,48.60
2018-07-22T05:39:54.872Z,45.52
2018-07-22T05:42:22.699Z,46.10
2018-07-22T05:44:50.515Z,48.13
2018-07-22T05:47:18.288Z,47.40
2018-07-22T05:49:46.125Z,49.75
2018-07-22T05:52:13.920Z,49.83
2018-07-22T05:54:41.717Z,50.48
2018-07-22T05:57:09.536Z,51.68
2018-07-22T05:59:37.357Z,51.88
2018-07-22T06:02:05.268Z,52.55
2018-07-22T06:04:59.539Z,52.23
2018-07-22T06:07:35.454Z,53.13
2018-07-22T06:10:04.102Z,50.73
2018-07-22T06:12:32.054Z,51.63
2018-07-22T06:14:59.916Z,52.90
2018-07-22T06:17:27.896Z,51.95
2018-07-22T06:19:55.780Z,53.45
2018-07-22T06:22:23.728Z,51.85
2018-07-22T06:24:51.632Z,49.38
2018-07-22T06:27:19.528Z,53.23
2018-07-22T06:29:47.364Z,51.13
2018-07-22T06:32:15.359Z,50.60
2018-07-22T06:34:43.276Z,55.50
2018-07-22T06:37:11.246Z,50.97
2018-07-22T06:39:39.110Z,49.13
2018-07-22T06:42:07.141Z,47.83
2018-07-22T06:44:35.045Z,46.70
2018-07-22T06:47:03.020Z,47.93
2018-07-22T06:49:30.861Z,48.20
2018-07-22T06:51:58.820Z,46.30
2018-07-22T06:54:26.808Z,46.42
2018-07-22T06:56:54.645Z,42.00
2018-07-22T06:59:22.488Z,40.17
2018-07-22T07:01:50.476Z,43.17
2018-07-22T07:04:18.353Z,41.33
2018-07-22T07:06:46.471Z,42.25
2018-07-22T07:09:14.325Z,41.35
2018-07-22T07:11:42.218Z,41.45
2018-07-22T07:14:10.554Z,41.98
2018-07-22T07:16:38.472Z,40.08
2018-07-22T07:19:06.366Z,42.30
2018-07-22T07:21:34.217Z,41.15
2018-07-22T07:24:02.058Z,39.45
2018-07-22T07:26:29.859Z,36.85
2018-07-22T07:28:57.664Z,36.40
2018-07-22T07:31:25.463Z,37.45
2018-07-22T07:33:53.231Z,35.90
2018-07-22T07:36:23.035Z,34.98
2018-07-22T07:39:12.409Z,34.15
2018-07-22T07:41:40.555Z,35.90
2018-07-22T07:44:08.995Z,33.18
2018-07-22T07:46:36.970Z,34.18
2018-07-22T07:49:04.994Z,33.50
2018-07-22T07:51:33.012Z,34.27
2018-07-22T07:54:00.870Z,32.10
2018-07-22T07:56:28.694Z,30.65
2018-07-22T07:58:56.840Z,32.42
2018-07-22T08:01:24.618Z,31.15
2018-07-22T08:03:52.442Z,31.85
2018-07-22T08:06:20.364Z,28.87
2018-07-22T08:09:27.513Z,28.42
2018-07-22T08:11:55.306Z,30.27
2018-07-22T08:14:23.161Z,31.40
2018-07-22T08:16:50.924Z,29.02
2018-07-22T08:19:18.760Z,30.35
2018-07-22T08:21:46.673Z,29.57
2018-07-22T08:24:14.365Z,28.92
2018-07-22T08:26:42.185Z,28.07
2018-07-22T08:29:16.748Z,29.92
2018-07-22T08:31:44.644Z,28.70
2018-07-22T08:34:12.471Z,29.48
2018-07-22T08:36:40.255Z,28.00
2018-07-22T08:39:08.783Z,28.95
2018-07-22T08:41:36.640Z,30.05
2018-07-22T08:44:04.552Z,28.35
2018-07-22T08:46:33.204Z,30.02
2018-07-22T08:49:01.000Z,27.52
2018-07-22T08:51:29.605Z,26.73
2018-07-22T08:53:57.391Z,26.90
2018-07-22T08:56:25.196Z,29.05
2018-07-22T08:58:53.087Z,25.43
2018-07-22T09:01:22.984Z,25.25
2018-07-22T09:03:50.950Z,26.07
2018-07-22T09:06:18.796Z,22.93
2018-07-22T09:08:46.597Z,22.58
2018-07-22T09:11:14.690Z,23.52
2018-07-22T09:13:42.545Z,23.87
2018-07-22T09:16:10.525Z,25.52
2018-07-22T09:18:38.848Z,25.52
2018-07-22T09:21:06.778Z,20.08
2018-07-22T09:26:21.127Z,20.27
2018-07-22T09:28:49.007Z,20.15
2018-07-22T09:31:16.824Z,21.12
2018-07-22T09:33:45.673Z,20.12
2018-07-22T09:36:13.587Z,21.25
2018-07-22T09:38:41.386Z,21.33
2018-07-22T09:41:09.263Z,20.05
2018-07-22T09:43:37.799Z,21.02
2018-07-22T09:46:05.609Z,19.87
2018-07-22T09:48:33.397Z,20.97
2018-07-22T09:51:01.195Z,19.02
2018-07-22T09:53:30.044Z,18.35
2018-07-22T09:55:57.932Z,20.77
2018-07-22T09:58:25.723Z,18.75
2018-07-22T10:01:33.646Z,15.32
2018-07-22T10:04:01.459Z,14.00
2018-07-22T10:06:39.914Z,15.28
2018-07-22T10:09:08.984Z,13.43
2018-07-22T10:11:36.805Z,15.10
2018-07-22T10:14:04.681Z,15.70
2018-07-22T10:16:32.619Z,17.65
2018-07-22T10:19:00.473Z,16.07
2018-07-22T10:21:28.368Z,16.40
2018-07-22T10:23:56.216Z,16.12
2018-07-22T10:26:24.015Z,17.35
2018-07-22T10:28:52.945Z,15.95
2018-07-22T10:31:20.793Z,17.37
2018-07-22T10:33:48.612Z,16.02
2018-07-22T10:36:16.497Z,15.65
2018-07-22T10:38:44.736Z,16.87
2018-07-22T10:41:12.987Z,15.23
2018-07-22T10:43:40.837Z,14.05
2018-07-22T10:46:08.698Z,14.33
2018-07-22T10:48:36.534Z,12.88
2018-07-22T10:51:04.411Z,12.50
2018-07-22T10:53:32.273Z,11.22
2018-07-22T10:56:00.163Z,12.37
2018-07-22T10:58:31.094Z,14.80
2018-07-22T11:00:58.994Z,13.80
2018-07-22T11:03:27.011Z,14.43
2018-07-22T11:05:54.955Z,14.35
2018-07-22T11:08:22.845Z,14.13
2018-07-22T11:10:50.722Z,13.75
2018-07-22T11:13:18.604Z,12.07
2018-07-22T11:15:46.486Z,12.15
2018-07-22T11:18:14.551Z,10.55
2018-07-22T11:20:42.539Z,9.98
2018-07-22T11:23:10.623Z,10.93
2018-07-22T11:25:38.617Z,9.60
2018-07-22T11:28:06.737Z,10.05
2018-07-22T11:30:34.657Z,11.57
2018-07-22T11:33:03.634Z,11.30
2018-07-22T11:35:33.547Z,10.95
2018-07-22T11:38:01.452Z,10.72
2018-07-22T11:40:29.328Z,12.55
2018-07-22T11:43:02.140Z,11.65
2018-07-22T11:45:30.029Z,10.68
2018-07-22T11:47:58.963Z,11.93
2018-07-22T11:50:26.922Z,11.22
2018-07-22T11:52:56.723Z,9.55
2018-07-22T11:55:24.624Z,8.83
2018-07-22T11:57:52.558Z,8.38
2018-07-22T12:00:20.404Z,7.37
2018-07-22T12:02:48.194Z,7.30
2018-07-22T12:05:16.060Z,6.42
2018-07-22T12:07:43.947Z,7.22
2018-07-22T12:10:11.744Z,6.72
2018-07-22T12:12:39.616Z,5.50
2018-07-22T12:15:07.420Z,4.58
2018-07-22T12:17:35.284Z,4.15
2018-07-22T12:20:03.189Z,3.50
2018-07-22T12:22:31.119Z,2.67
2018-07-22T12:24:59.011Z,2.10
2018-07-22T12:27:26.812Z,2.50
2018-07-22T12:29:54.708Z,2.12
2018-07-22T12:32:22.532Z,2.92
2018-07-22T12:35:16.583Z,1.98
2018-07-22T12:37:44.416Z,2.30
2018-07-22T12:40:12.242Z,2.55
2018-07-22T12:42:40.043Z,2.80
2018-07-22T12:45:07.855Z,2.80
2018-07-22T12:47:35.706Z,3.33
2018-07-22T12:50:03.684Z,2.70
2018-07-22T12:52:31.577Z,3.00
2018-07-22T12:54:59.420Z,3.72
2018-07-22T12:57:27.390Z,3.05
2018-07-22T12:59:55.231Z,2.83
2018-07-22T13:02:24.078Z,2.35
2018-07-22T13:04:51.957Z,2.45
2018-07-22T13:07:19.821Z,2.58
2018-07-22T13:09:47.718Z,2.50
2018-07-22T13:12:28.860Z,2.47
2018-07-22T13:14:56.716Z,5.72
2018-07-22T13:17:24.551Z,2.22
2018-07-22T13:19:52.385Z,1.70
2018-07-22T13:22:21.233Z,2.55
2018-07-22T13:24:49.086Z,2.12
2018-07-22T13:27:17.042Z,2.30
2018-07-22T13:29:44.851Z,2.20
2018-07-22T13:32:12.678Z,2.37
2018-07-22T13:34:40.578Z,2.27
2018-07-22T13:37:08.543Z,1.35
2018-07-22T13:39:36.509Z,1.12
2018-07-22T13:43:33.923Z,1.30
2018-07-22T13:46:01.931Z,1.00
2018-07-22T13:48:30.000Z,0.82
2018-07-22T13:50:58.254Z,0.98
2018-07-22T13:53:26.343Z,1.10
2018-07-22T13:55:56.473Z,0.90
2018-07-22T13:58:48.358Z,0.88
2018-07-22T14:01:16.312Z,1.20
2018-07-22T14:03:44.125Z,0.90
2018-07-22T14:06:11.997Z,1.10
2018-07-22T14:08:39.872Z,0.95
2018-07-22T14:11:07.768Z,0.88
2018-07-22T14:13:35.528Z,0.95
2018-07-22T14:16:03.391Z,1.12
2018-07-22T14:18:31.221Z,0.80
2018-07-22T14:20:59.100Z,0.88
2018-07-22T14:23:26.902Z,0.60
2018-07-22T14:25:54.750Z,0.70
2018-07-22T14:28:22.571Z,0.50
2018-07-22T14:30:50.366Z,0.55
2018-07-22T14:33:18.161Z,0.78
2018-07-22T14:35:46.011Z,1.00
2018-07-22T14:38:13.908Z,0.55
2018-07-22T14:40:41.973Z,0.70
2018-07-22T14:43:10.010Z,0.70
2018-07-22T14:45:37.869Z,0.80
2018-07-22T14:48:05.749Z,0.80
2018-07-22T14:50:33.562Z,1.00
2018-07-22T14:53:05.583Z,1.05
2018-07-22T14:55:33.400Z,0.62
2018-07-22T14:58:01.375Z,0.80
2018-07-22T15:00:29.294Z,0.88
2018-07-22T15:02:57.456Z,0.60
2018-07-22T15:05:25.345Z,0.60
2018-07-22T15:07:53.324Z,0.85
2018-07-22T15:10:21.193Z,0.80
2018-07-22T15:12:49.164Z,0.70
2018-07-22T15:15:17.090Z,1.77
2018-07-22T15:17:45.084Z,0.72
2018-07-22T15:20:12.993Z,0.60
2018-07-22T15:22:41.023Z,0.53
2018-07-22T15:25:08.885Z,1.10
2018-07-22T15:27:36.832Z,0.80
2018-07-22T15:30:04.977Z,0.62
2018-07-22T15:32:32.994Z,0.78
2018-07-22T15:35:00.932Z,0.78
2018-07-22T15:37:28.902Z,0.98
2018-07-22T15:39:56.800Z,2.45
2018-07-22T15:42:24.883Z,0.95
2018-07-22T15:44:52.777Z,0.80
2018-07-22T15:47:20.683Z,0.60
2018-07-22T15:49:48.565Z,1.00
2018-07-22T15:52:16.527Z,0.85
2018-07-22T15:54:44.443Z,0.78
2018-07-22T16:00:16.673Z,1.00
2018-07-22T16:02:44.563Z,1.55
2018-07-22T16:05:12.715Z,1.12
2018-07-22T16:07:40.693Z,1.17
2018-07-22T16:10:10.852Z,1.10
2018-07-22T16:12:39.708Z,1.00
2018-07-22T16:15:07.678Z,1.17
2018-07-22T16:17:36.515Z,1.22
2018-07-22T16:20:04.740Z,1.75
2018-07-22T16:22:32.610Z,1.30
2018-07-22T16:25:00.432Z,1.57
2018-07-22T16:27:28.471Z,1.45
2018-07-22T16:29:56.426Z,1.70
2018-07-22T16:32:24.296Z,1.70
2018-07-22T16:34:52.077Z,1.65
2018-07-22T16:37:19.855Z,1.80
2018-07-22T16:39:47.646Z,1.40
2018-07-22T16:42:15.515Z,2.00
2018-07-22T16:44:56.460Z,1.67
2018-07-22T16:47:59.403Z,2.20
2018-07-22T16:50:27.364Z,1.95
2018-07-22T16:52:55.151Z,2.30
2018-07-22T16:55:23.968Z,2.00
2018-07-22T16:57:51.762Z,1.82
2018-07-22T17:00:19.740Z,1.90
2018-07-22T17:02:47.625Z,2.00
2018-07-22T17:05:16.781Z,1.90
2018-07-22T17:07:44.674Z,1.90
2018-07-22T17:10:12.833Z,2.15
2018-07-22T17:12:40.747Z,1.95
2018-07-22T17:15:08.617Z,2.55
2018-07-22T17:17:36.415Z,2.08
2018-07-22T17:20:06.260Z,2.42
2018-07-22T17:22:34.186Z,2.47
2018-07-22T17:25:03.105Z,2.22
2018-07-22T17:27:31.007Z,2.50
2018-07-22T17:29:58.874Z,2.55
2018-07-22T17:32:26.717Z,2.77
2018-07-22T17:34:56.072Z,2.35
2018-07-22T17:37:25.251Z,2.72
2018-07-22T17:39:53.151Z,2.77
2018-07-22T17:42:21.383Z,2.58
2018-07-22T17:44:49.259Z,2.87
2018-07-22T17:47:17.044Z,2.25
2018-07-22T17:49:46.271Z,2.50
2018-07-22T17:52:32.931Z,2.25
2018-07-22T17:55:00.815Z,1.35
2018-07-22T17:57:29.741Z,1.62
2018-07-22T18:00:05.899Z,1.40
2018-07-22T18:02:33.725Z,2.00
2018-07-22T18:05:01.594Z,1.85
2018-07-22T18:07:33.670Z,2.05
2018-07-22T18:10:01.827Z,1.67
2018-07-22T18:12:29.734Z,2.22
2018-07-22T18:14:57.595Z,2.05
2018-07-22T18:17:25.431Z,1.60
2018-07-22T18:19:53.208Z,1.55
2018-07-22T18:22:21.637Z,1.65
2018-07-22T18:24:50.498Z,1.90
2018-07-22T18:27:19.108Z,1.98
2018-07-22T18:29:46.906Z,1.70
2018-07-22T18:32:23.450Z,2.20
2018-07-22T18:34:53.628Z,1.95
2018-07-22T18:37:21.679Z,2.15
2018-07-22T18:39:49.586Z,2.25
2018-07-22T18:42:17.551Z,2.08
2018-07-22T18:44:45.461Z,2.00
2018-07-22T18:47:13.429Z,2.65
2018-07-22T18:49:41.333Z,2.83
2018-07-22T18:52:09.299Z,2.30
2018-07-22T18:54:37.178Z,2.45
2018-07-22T18:57:05.320Z,2.85
2018-07-22T18:59:33.347Z,3.47
2018-07-22T19:02:01.359Z,3.47
2018-07-22T19:04:29.333Z,2.98
2018-07-22T19:06:57.245Z,3.40
2018-07-22T19:09:25.200Z,3.05
2018-07-22T19:11:53.242Z,3.75
2018-07-22T19:14:21.129Z,4.17
2018-07-22T19:16:49.052Z,3.37
2018-07-22T19:19:16.993Z,3.02
2018-07-22T19:21:44.962Z,4.20
2018-07-22T19:24:12.832Z,3.17
2018-07-22T19:26:40.813Z,3.45
2018-07-22T19:29:08.693Z,3.60
2018-07-22T19:31:36.648Z,4.28
2018-07-22T19:34:04.540Z,4.67
2018-07-22T19:36:32.461Z,4.73
2018-07-22T19:41:56.777Z,5.83
2018-07-22T19:44:24.634Z,5.30
2018-07-22T19:46:52.475Z,4.78
2018-07-22T19:49:20.370Z,4.73
2018-07-22T19:52:27.451Z,4.60
2018-07-22T19:54:55.319Z,5.40
2018-07-22T19:57:23.144Z,6.17
2018-07-22T19:59:51.004Z,5.50
2018-07-22T20:02:19.854Z,6.33
2018-07-22T20:04:47.692Z,5.97
2018-07-22T20:07:17.544Z,5.53
2018-07-22T20:09:45.467Z,5.53
2018-07-22T20:12:13.293Z,5.05
2018-07-22T20:14:41.103Z,6.55
2018-07-22T20:17:08.917Z,6.53
2018-07-22T20:19:36.815Z,6.30
2018-07-22T20:22:04.747Z,6.17
2018-07-22T20:24:32.691Z,7.08
2018-07-22T20:27:00.579Z,7.90
2018-07-22T20:29:30.244Z,11.35
2018-07-22T20:31:58.092Z,7.08
2018-07-22T20:34:26.025Z,7.08
2018-07-22T20:36:53.907Z,8.05
2018-07-22T20:39:21.758Z,7.90
2018-07-22T20:41:50.162Z,6.53
2018-07-22T20:44:18.057Z,5.67
2018-07-22T20:46:46.061Z,6.72
2018-07-22T20:49:13.929Z,7.95
2018-07-22T20:51:41.786Z,7.72
2018-07-22T20:54:09.671Z,7.37
2018-07-22T20:56:37.949Z,7.05
2018-07-22T20:59:05.947Z,7.60
2018-07-22T21:01:34.076Z,8.83
2018-07-22T21:04:02.350Z,8.95
2018-07-22T21:06:31.079Z,8.55
2018-07-22T21:08:59.215Z,8.03
2018-07-22T21:11:37.172Z,7.62
2018-07-22T21:14:05.539Z,7.33
2018-07-22T21:16:33.366Z,6.42
2018-07-22T21:19:01.169Z,6.50
2018-07-22T21:21:29.137Z,6.40
2018-07-22T21:23:57.029Z,9.25
2018-07-22T21:26:24.874Z,8.13
2018-07-22T21:28:52.752Z,10.53
2018-07-22T21:31:20.581Z,10.32
2018-07-22T21:33:48.410Z,9.33
2018-07-22T21:36:16.272Z,9.05
2018-07-22T21:38:44.108Z,9.48
2018-07-22T21:41:31.774Z,7.35
2018-07-22T21:43:59.716Z,8.05
2018-07-22T21:46:27.737Z,9.98
2018-07-22T21:48:57.640Z,10.43
2018-07-22T21:51:25.522Z,11.03
2018-07-22T21:53:53.383Z,11.25
2018-07-22T21:56:21.227Z,11.75
2018-07-22T21:58:49.238Z,10.38
2018-07-22T22:01:17.042Z,10.10
2018-07-22T22:04:19.282Z,10.53
2018-07-22T22:06:47.259Z,9.68
2018-07-22T22:09:15.147Z,10.18
2018-07-22T22:11:43.155Z,9.50
2018-07-22T22:14:11.328Z,11.35
2018-07-22T22:16:39.406Z,11.45
2018-07-22T22:19:07.506Z,10.75
2018-07-22T22:21:36.614Z,11.88
2018-07-22T22:24:04.764Z,12.18
2018-07-22T22:26:32.939Z,11.85
2018-07-22T22:29:00.874Z,11.53
2018-07-22T22:31:29.024Z,12.50
2018-07-22T22:33:57.097Z,12.10
2018-07-22T22:36:25.090Z,13.65
2018-07-22T22:38:53.059Z,11.70
2018-07-22T22:41:21.050Z,11.68
2018-07-22T22:43:49.054Z,11.65
2018-07-22T22:46:17.019Z,11.18
2018-07-22T22:48:45.001Z,11.50
2018-07-22T22:51:13.075Z,11.20
2018-07-22T22:53:41.040Z,11.35
2018-07-22T22:56:08.967Z,11.28
2018-07-22T22:58:48.151Z,10.72
2018-07-22T23:01:16.180Z,10.90
2018-07-22T23:06:31.568Z,10.68
2018-07-22T23:09:00.496Z,11.60
2018-07-22T23:11:28.323Z,11.22
2018-07-22T23:13:56.204Z,11.00
2018-07-22T23:16:24.050Z,11.43
2018-07-22T23:18:51.904Z,11.25
2018-07-22T23:21:19.781Z,11.53
2018-07-22T23:23:47.665Z,11.12
2018-07-22T23:26:15.488Z,11.28
2018-07-22T23:28:43.324Z,11.40
2018-07-22T23:31:11.130Z,11.08
2018-07-22T23:33:38.978Z,10.15
2018-07-22T23:36:06.838Z,9.78
2018-07-22T23:38:34.634Z,10.28
2018-07-22T23:41:10.045Z,9.10
2018-07-22T23:43:38.085Z,9.13
2018-07-22T23:48:45.034Z,11.12
2018-07-22T23:51:12.898Z,11.28
2018-07-22T23:53:40.710Z,10.25
2018-07-22T23:56:08.475Z,12.47
2018-07-22T23:58:36.299Z,12.10
